Portada
METAR-TAF:

METAR-TAF

Aeroports :

Rodrigues, Maurici

latitud: 19-41S, longitud: 063-25E, altitud: 58 m

Observació

L'informe es va fer fa 56 minuts, a les 08:00 UTC
Vent 15 kt del Est
Temperatura 25°C
Humitat 65%
Pressió 1017 hPa
Visibilitat 10 km o més
Cel ennuvolat a una alçada de 1700 ft

METAR: FIMR 140800Z 10015KT 9999 BKN017 25/18 Q1017

Hora: 12:56 (08:56 UTC)

Pronòstic

L'informe es va fer fa 3 hores i 21 minuts, a les 05:35 UTC
Pronòstic vàlid del 14 a les 06 UTC al 15 a les 00 UTC
Vent 13 kt del Est amb ràfegues de 25 kt
Visibilitat 10 km o més
Núvols disperses a una alçada de 1800 ft

TAF: FIMR 140535Z 1406/1500 10013G25KT 9999 SCT018

Observacions i pronòstics meteorològics de més de 4000 aeroports (METAR i TAF).

Les estacions disponibles són els punts grocs i vermells al mapa.

Posi el ratolí al punt desitjat per veure el nom de l'estació.

Feu clic per veure les observacions i els pronòstics meteorològics.

Per canviar el mapa: feu clic els botons verds amb una creu de color negre per apropar; al botó verd amb un guió per allunyar la imatge; o en les fletxes verdes per a mapes adjacents.


METAR-TAF: